Time;durP1;ratioP1;P1;durP2;ratioP2;P2;SDS_P1;SDS_P2;PMS_P1;PMS_P2;Temp;Humidity;BMP_temperature;BMP_pressure;BME280_temperature;BME280_humidity;BME280_pressure;Samples;Min_cycle;Max_cycle;Signal;HPM_P1;HPM_P2
2023/04/15 00:02:25;;;;;;;;;;;;;;;22.00;38.95;100071.54;104042;1283;74890;-83
2023/04/15 00:04:51;;;;;;;;;;;;;;;22.00;38.91;100041.63;103951;1283;61413;-83
2023/04/15 00:07:16;;;;;;;;;;;;;;;22.00;38.93;100044.30;103929;1282;62513;-83
2023/04/15 00:09:43;;;;;;;;;;;;;;;21.99;38.99;100078.75;103823;1285;61355;-84
2023/04/15 00:12:09;;;;;;;;;;;;;;;21.99;38.86;100099.54;104284;1282;62513;-84
2023/04/15 00:14:36;;;;;;;;;;;;;;;22.00;38.85;100106.30;104289;1282;61377;-84
2023/04/15 00:17:02;;;;;;;;;;;;;;;21.99;38.92;100101.89;104054;1288;62578;-84
2023/04/15 00:19:28;;;;;;;;;;;;;;;22.00;38.93;100093.06;103945;1286;61303;-83
2023/04/15 00:21:54;;;;;;;;;;;;;;;22.00;38.96;100087.32;103979;1282;61327;-84
2023/04/15 00:24:20;;;;;;;;;;;;;;;21.99;39.00;100089.16;103926;1282;73218;-84
2023/04/15 00:26:47;;;;;;;;;;;;;;;21.99;38.98;100105.83;104010;1288;62601;-84
2023/04/15 00:29:13;;;;;;;;;;;;;;;21.99;39.00;100110.66;103937;1283;61314;-83
2023/04/15 00:31:38;;;;;;;;;;;;;;;21.99;39.01;100107.23;104040;1282;61326;-84
2023/04/15 00:34:04;;;;;;;;;;;;;;;21.99;38.93;100101.52;103796;1289;61401;-83
2023/04/15 00:36:32;;;;;;;;;;;;;;;21.99;38.96;100102.48;103869;1282;61400;-84
2023/04/15 00:38:58;;;;;;;;;;;;;;;21.99;39.01;100106.79;104041;1283;61391;-84
2023/04/15 00:41:25;;;;;;;;;;;;;;;21.99;38.93;100111.63;103899;1282;62560;-84
2023/04/15 00:43:52;;;;;;;;;;;;;;;21.98;38.95;100123.13;103892;1283;61315;-84
2023/04/15 00:46:20;;;;;;;;;;;;;;;21.98;38.91;100123.33;103989;1283;61350;-84
2023/04/15 00:48:46;;;;;;;;;;;;;;;21.98;38.96;100122.96;104027;1288;61388;-84
2023/04/15 00:51:13;;;;;;;;;;;;;;;21.97;38.91;100118.34;103735;1282;61292;-84
2023/04/15 00:53:39;;;;;;;;;;;;;;;21.98;38.91;100120.64;103909;1283;74383;-84
2023/04/15 00:56:05;;;;;;;;;;;;;;;21.97;38.96;100122.64;103904;1288;61333;-84
2023/04/15 00:58:30;;;;;;;;;;;;;;;21.97;38.91;100130.16;103861;1283;61458;-84
2023/04/15 01:00:56;;;;;;;;;;;;;;;21.97;38.83;100134.86;103762;1288;61401;-83
2023/04/15 01:03:22;;;;;;;;;;;;;;;21.97;38.87;100131.83;103955;1288;61380;-84
2023/04/15 01:05:48;;;;;;;;;;;;;;;21.96;38.87;100125.40;104079;1282;61391;-83
2023/04/15 01:08:13;;;;;;;;;;;;;;;21.96;38.90;100126.32;103940;1283;61285;-84
2023/04/15 01:10:39;;;;;;;;;;;;;;;21.96;39.02;100127.55;103985;1286;61841;-84
2023/04/15 01:13:05;;;;;;;;;;;;;;;21.96;38.82;100124.17;103920;1282;62637;-83
2023/04/15 01:15:31;;;;;;;;;;;;;;;21.96;39.01;100124.76;103875;1283;62013;-83
2023/04/15 01:17:57;;;;;;;;;;;;;;;21.96;38.93;100132.27;103908;1283;61413;-84
2023/04/15 01:20:23;;;;;;;;;;;;;;;21.96;38.98;100139.27;103796;1283;61443;-83
2023/04/15 01:22:48;;;;;;;;;;;;;;;21.96;38.87;100136.77;103967;1285;61365;-84
2023/04/15 01:25:17;;;;;;;;;;;;;;;21.95;38.95;100134.67;103920;1283;73164;-84
2023/04/15 01:27:42;;;;;;;;;;;;;;;21.95;38.93;100136.83;103732;1282;76963;-83
2023/04/15 01:30:08;;;;;;;;;;;;;;;21.95;38.98;100136.09;103960;1288;62679;-83
2023/04/15 01:32:33;;;;;;;;;;;;;;;21.95;38.90;100128.09;103868;1283;61295;-85
2023/04/15 01:34:59;;;;;;;;;;;;;;;21.94;38.92;100125.77;103996;1282;62180;-84
2023/04/15 01:37:25;;;;;;;;;;;;;;;21.95;38.85;100122.89;103860;1288;61441;-83
2023/04/15 01:39:51;;;;;;;;;;;;;;;21.93;38.89;100119.35;103952;1283;74206;-84
2023/04/15 01:42:16;;;;;;;;;;;;;;;21.93;38.96;100115.23;103858;1288;61429;-84
2023/04/15 01:44:41;;;;;;;;;;;;;;;21.94;38.92;100117.77;103991;1288;61438;-84
2023/04/15 01:47:07;;;;;;;;;;;;;;;21.93;38.77;100117.95;103852;1282;61465;-84
2023/04/15 01:49:33;;;;;;;;;;;;;;;21.93;39.01;100114.55;103919;1282;61466;-83
2023/04/15 01:51:58;;;;;;;;;;;;;;;21.93;38.76;100109.20;103864;1288;74500;-84
2023/04/15 01:54:24;;;;;;;;;;;;;;;21.92;38.81;100106.20;103938;1288;61393;-84
2023/04/15 01:56:50;;;;;;;;;;;;;;;21.92;38.90;100111.05;103910;1287;62371;-84
2023/04/15 01:59:17;;;;;;;;;;;;;;;21.92;38.98;100119.64;103937;1283;61288;-84
2023/04/15 02:01:44;;;;;;;;;;;;;;;21.92;38.90;100130.42;103981;1282;62538;-82
2023/04/15 02:04:15;;;;;;;;;;;;;;;21.92;38.98;100139.42;103954;1287;61912;-82
2023/04/15 02:06:42;;;;;;;;;;;;;;;21.92;38.93;100141.17;104039;1283;62375;-82
2023/04/15 02:09:08;;;;;;;;;;;;;;;21.91;38.95;100136.73;103913;1288;72604;-83
2023/04/15 02:11:57;;;;;;;;;;;;;;;21.91;38.99;100126.17;103916;1283;61456;-83
2023/04/15 02:14:22;;;;;;;;;;;;;;;21.91;38.91;100119.75;103164;1294;61463;-83
2023/04/15 02:16:48;;;;;;;;;;;;;;;21.91;38.91;100117.41;103530;1288;61438;-83
2023/04/15 02:19:14;;;;;;;;;;;;;;;21.91;38.81;100113.28;103425;1289;61447;-82
2023/04/15 02:21:40;;;;;;;;;;;;;;;21.91;38.92;100109.68;103482;1287;61499;-83
2023/04/15 02:24:05;;;;;;;;;;;;;;;21.91;38.88;100111.89;103372;1289;61347;-84
2023/04/15 02:26:32;;;;;;;;;;;;;;;21.91;38.97;100117.96;103403;1289;61317;-83
2023/04/15 02:28:58;;;;;;;;;;;;;;;21.90;38.96;100114.60;103235;1289;61359;-83
2023/04/15 02:31:23;;;;;;;;;;;;;;;21.90;38.91;100116.40;103489;1289;61496;-83
2023/04/15 02:33:49;;;;;;;;;;;;;;;21.90;38.87;100118.95;103998;1289;61377;-83
2023/04/15 02:36:15;;;;;;;;;;;;;;;21.90;38.99;100114.10;103626;1291;61491;-83
2023/04/15 02:38:41;;;;;;;;;;;;;;;21.90;38.89;100113.04;103495;1289;61727;-83
2023/04/15 02:41:10;;;;;;;;;;;;;;;21.90;38.85;100114.11;103537;1291;61496;-83
2023/04/15 02:43:36;;;;;;;;;;;;;;;21.90;38.90;100109.41;103529;1289;61384;-83
2023/04/15 02:46:03;;;;;;;;;;;;;;;21.90;38.90;100099.27;103401;1294;61431;-83
2023/04/15 02:48:29;;;;;;;;;;;;;;;21.90;38.84;100097.84;103382;1289;61364;-84
2023/04/15 02:51:09;;;;;;;;;;;;;;;21.90;39.01;100101.77;103434;1294;61393;-84
2023/04/15 02:53:35;;;;;;;;;;;;;;;21.89;38.89;100101.80;103938;1283;75498;-84
2023/04/15 02:56:00;;;;;;;;;;;;;;;21.89;38.80;100100.19;104029;1283;62593;-83
2023/04/15 02:58:26;;;;;;;;;;;;;;;21.89;38.89;100100.78;103983;1282;61282;-84
2023/04/15 03:00:52;;;;;;;;;;;;;;;21.89;38.89;100108.25;103959;1284;62647;-84
2023/04/15 03:03:17;;;;;;;;;;;;;;;21.88;38.87;100112.10;103802;1289;61480;-84
2023/04/15 03:05:43;;;;;;;;;;;;;;;21.88;38.90;100119.08;103836;1283;61356;-83
2023/04/15 03:08:08;;;;;;;;;;;;;;;21.89;38.87;100121.54;104033;1282;61374;-83
2023/04/15 03:10:34;;;;;;;;;;;;;;;21.88;39.01;100125.22;103941;1287;62594;-83
2023/04/15 03:13:00;;;;;;;;;;;;;;;21.88;39.01;100131.44;103972;1283;61410;-84
2023/04/15 03:15:26;;;;;;;;;;;;;;;21.88;38.92;100127.34;103929;1285;62662;-84
2023/04/15 03:17:52;;;;;;;;;;;;;;;21.88;38.73;100115.73;103986;1283;61413;-83
2023/04/15 03:20:18;;;;;;;;;;;;;;;21.87;38.88;100102.55;104034;1283;61464;-83
2023/04/15 03:22:44;;;;;;;;;;;;;;;21.87;38.89;100099.46;104018;1282;61374;-84
2023/04/15 03:25:10;;;;;;;;;;;;;;;21.87;38.92;100103.96;103937;1283;61375;-83
2023/04/15 03:27:36;;;;;;;;;;;;;;;21.87;38.92;100105.64;103920;1288;61835;-84
2023/04/15 03:30:02;;;;;;;;;;;;;;;21.87;38.91;100116.04;103888;1282;61628;-84
2023/04/15 03:32:27;;;;;;;;;;;;;;;21.86;38.88;100132.19;103934;1283;62615;-83
2023/04/15 03:34:53;;;;;;;;;;;;;;;21.86;38.79;100145.98;103983;1287;62234;-83
2023/04/15 03:37:18;;;;;;;;;;;;;;;21.86;38.91;100147.75;104016;1283;61380;-83
2023/04/15 03:39:44;;;;;;;;;;;;;;;21.86;38.86;100146.19;103878;1282;61298;-83
2023/04/15 03:42:09;;;;;;;;;;;;;;;21.86;38.91;100139.70;103973;1287;62568;-83
2023/04/15 03:44:36;;;;;;;;;;;;;;;21.86;38.79;100129.16;103893;1283;61442;-84
2023/04/15 03:47:01;;;;;;;;;;;;;;;21.86;38.83;100125.06;103976;1288;61372;-84
2023/04/15 03:49:27;;;;;;;;;;;;;;;21.85;38.89;100129.05;104014;1282;61320;-83
2023/04/15 03:51:52;;;;;;;;;;;;;;;21.85;38.89;100140.54;103862;1282;75537;-83
2023/04/15 03:54:17;;;;;;;;;;;;;;;21.85;38.91;100158.94;103910;1288;62430;-83
2023/04/15 03:56:43;;;;;;;;;;;;;;;21.85;38.90;100173.51;103845;1283;61305;-83
2023/04/15 03:59:08;;;;;;;;;;;;;;;21.85;38.73;100189.43;103921;1288;61384;-83
2023/04/15 04:01:34;;;;;;;;;;;;;;;21.85;38.85;100200.01;103962;1282;61467;-83
2023/04/15 04:03:59;;;;;;;;;;;;;;;21.85;38.85;100206.09;103951;1283;61848;-83
2023/04/15 04:06:25;;;;;;;;;;;;;;;21.85;38.84;100205.19;103954;1288;61359;-84
2023/04/15 04:08:50;;;;;;;;;;;;;;;21.85;38.90;100204.64;103992;1287;61444;-84
2023/04/15 04:11:16;;;;;;;;;;;;;;;21.85;38.90;100204.30;104030;1283;62197;-83
2023/04/15 04:13:41;;;;;;;;;;;;;;;21.85;38.80;100202.13;104021;1287;61377;-83
2023/04/15 04:16:07;;;;;;;;;;;;;;;21.85;38.83;100202.33;103991;1288;61311;-83
2023/04/15 04:18:32;;;;;;;;;;;;;;;21.85;38.89;100204.81;104091;1283;62077;-83
2023/04/15 04:20:58;;;;;;;;;;;;;;;21.85;38.93;100199.47;103993;1283;61384;-83
2023/04/15 04:23:23;;;;;;;;;;;;;;;21.85;38.83;100190.11;104027;1283;61306;-83
2023/04/15 04:25:49;;;;;;;;;;;;;;;21.85;38.85;100194.77;104143;1287;61370;-83
2023/04/15 04:28:14;;;;;;;;;;;;;;;21.85;38.95;100193.56;103934;1289;61352;-83
2023/04/15 04:30:40;;;;;;;;;;;;;;;21.85;38.86;100188.89;104044;1288;61394;-83
2023/04/15 04:33:06;;;;;;;;;;;;;;;21.85;38.90;100188.69;103979;1283;62520;-84
2023/04/15 04:35:33;;;;;;;;;;;;;;;21.85;38.81;100190.14;103975;1288;61386;-84
2023/04/15 04:37:59;;;;;;;;;;;;;;;21.85;38.89;100179.92;104064;1286;61502;-84
2023/04/15 04:40:25;;;;;;;;;;;;;;;21.85;38.85;100177.45;104027;1287;61457;-83
2023/04/15 04:42:50;;;;;;;;;;;;;;;21.85;38.87;100175.80;103865;1283;61788;-83
2023/04/15 04:45:17;;;;;;;;;;;;;;;21.85;38.90;100178.51;104040;1288;61387;-83
2023/04/15 04:47:42;;;;;;;;;;;;;;;21.85;38.77;100171.86;103850;1285;72607;-84
2023/04/15 04:50:08;;;;;;;;;;;;;;;21.84;38.88;100163.48;104101;1287;61360;-84
2023/04/15 04:52:33;;;;;;;;;;;;;;;21.84;38.88;100166.73;104356;1282;61361;-84
2023/04/15 04:54:59;;;;;;;;;;;;;;;21.85;38.85;100170.83;104118;1283;61260;-83
2023/04/15 04:57:24;;;;;;;;;;;;;;;21.84;38.74;100170.51;104074;1288;61432;-83
2023/04/15 04:59:50;;;;;;;;;;;;;;;21.84;38.94;100165.13;103932;1283;72580;-84
2023/04/15 05:02:15;;;;;;;;;;;;;;;21.85;38.87;100179.95;103890;1289;62593;-82
2023/04/15 05:04:41;;;;;;;;;;;;;;;21.84;38.82;100191.80;104064;1283;61391;-82
2023/04/15 05:07:07;;;;;;;;;;;;;;;21.84;38.89;100199.32;104055;1289;61466;-83
2023/04/15 05:09:34;;;;;;;;;;;;;;;21.85;38.93;100203.97;103907;1289;61381;-83
2023/04/15 05:12:01;;;;;;;;;;;;;;;21.85;38.93;100202.53;103937;1288;61462;-83
2023/04/15 05:14:27;;;;;;;;;;;;;;;21.84;38.94;100198.24;104089;1285;61381;-83
2023/04/15 05:16:53;;;;;;;;;;;;;;;21.84;38.84;100201.83;104026;1288;61389;-83
2023/04/15 05:19:18;;;;;;;;;;;;;;;21.85;38.79;100209.54;104041;1288;61372;-83
2023/04/15 05:21:44;;;;;;;;;;;;;;;21.85;38.79;100212.73;104091;1288;62364;-83
2023/04/15 05:24:10;;;;;;;;;;;;;;;21.84;38.92;100211.88;103903;1285;74569;-84
2023/04/15 05:26:35;;;;;;;;;;;;;;;21.85;38.80;100206.83;104021;1283;62496;-83
2023/04/15 05:29:01;;;;;;;;;;;;;;;21.85;38.79;100208.27;104026;1288;61297;-85
2023/04/15 05:31:26;;;;;;;;;;;;;;;21.84;38.84;100216.89;103998;1282;61314;-84
2023/04/15 05:33:52;;;;;;;;;;;;;;;21.84;38.83;100222.28;103822;1290;61381;-84
2023/04/15 05:36:17;;;;;;;;;;;;;;;21.85;38.87;100228.35;103961;1288;62493;-83
2023/04/15 05:38:43;;;;;;;;;;;;;;;21.84;38.91;100225.88;103971;1288;61378;-84
2023/04/15 05:41:08;;;;;;;;;;;;;;;21.84;38.88;100224.60;104015;1285;61400;-84
2023/04/15 05:43:34;;;;;;;;;;;;;;;21.84;38.89;100226.39;103991;1288;61366;-85
2023/04/15 05:45:59;;;;;;;;;;;;;;;21.84;38.86;100227.46;104011;1288;61381;-84
2023/04/15 05:48:24;;;;;;;;;;;;;;;21.85;38.93;100229.56;104036;1286;61384;-84
2023/04/15 05:50:50;;;;;;;;;;;;;;;21.85;38.83;100231.01;104100;1287;62141;-84
2023/04/15 05:53:15;;;;;;;;;;;;;;;21.85;38.85;100238.14;103939;1282;62092;-84
2023/04/15 05:55:41;;;;;;;;;;;;;;;21.86;38.95;100247.23;103943;1289;61384;-84
2023/04/15 05:58:06;;;;;;;;;;;;;;;21.86;38.82;100255.98;104001;1288;61342;-83
2023/04/15 06:00:32;;;;;;;;;;;;;;;21.86;38.82;100262.25;103974;1289;62445;-83
2023/04/15 06:02:58;;;;;;;;;;;;;;;21.86;38.76;100268.54;103978;1288;62264;-83
2023/04/15 06:05:24;;;;;;;;;;;;;;;21.85;38.86;100267.83;103946;1288;61403;-83
2023/04/15 06:07:50;;;;;;;;;;;;;;;21.86;38.91;100260.44;103856;1289;62508;-83
2023/04/15 06:10:16;;;;;;;;;;;;;;;21.86;38.91;100257.25;104042;1287;61365;-83
2023/04/15 06:12:41;;;;;;;;;;;;;;;21.85;38.92;100252.81;104056;1288;62493;-83
2023/04/15 06:15:09;;;;;;;;;;;;;;;21.86;38.97;100249.73;103989;1288;61381;-83
2023/04/15 06:17:35;;;;;;;;;;;;;;;21.85;38.87;100253.69;103959;1287;61358;-83
2023/04/15 06:20:00;;;;;;;;;;;;;;;21.86;38.93;100252.23;103967;1289;61380;-84
2023/04/15 06:22:25;;;;;;;;;;;;;;;21.86;38.83;100250.09;103911;1289;61474;-83
2023/04/15 06:24:51;;;;;;;;;;;;;;;21.86;38.89;100250.08;104004;1287;61384;-83
2023/04/15 06:27:17;;;;;;;;;;;;;;;21.86;38.97;100249.91;104041;1283;62640;-83
2023/04/15 06:29:43;;;;;;;;;;;;;;;21.86;39.00;100246.83;104018;1288;61343;-84
2023/04/15 06:32:08;;;;;;;;;;;;;;;21.86;39.03;100251.84;103916;1288;61458;-83
2023/04/15 06:34:34;;;;;;;;;;;;;;;21.86;38.96;100250.39;104000;1289;61385;-83
2023/04/15 06:37:00;;;;;;;;;;;;;;;21.88;38.86;100244.20;103929;1283;62088;-83
2023/04/15 06:39:26;;;;;;;;;;;;;;;21.88;39.02;100241.97;104022;1283;62042;-84
2023/04/15 06:41:51;;;;;;;;;;;;;;;21.89;38.89;100242.44;103981;1288;62604;-82
2023/04/15 06:44:17;;;;;;;;;;;;;;;21.90;38.92;100241.68;103982;1288;61400;-84
2023/04/15 06:46:43;;;;;;;;;;;;;;;21.91;39.04;100241.43;103963;1288;74474;-83
2023/04/15 06:49:09;;;;;;;;;;;;;;;21.90;39.02;100238.77;103823;1285;61402;-83
2023/04/15 06:51:35;;;;;;;;;;;;;;;21.92;39.08;100242.60;104025;1293;61384;-83
2023/04/15 06:54:01;;;;;;;;;;;;;;;21.92;38.97;100241.66;103948;1289;61378;-84
2023/04/15 06:56:27;;;;;;;;;;;;;;;21.92;38.97;100250.08;104065;1282;61237;-83
2023/04/15 06:58:52;;;;;;;;;;;;;;;21.92;39.07;100243.83;103949;1282;61412;-83
2023/04/15 07:01:18;;;;;;;;;;;;;;;21.92;39.00;100251.66;103962;1282;61632;-83
2023/04/15 07:03:45;;;;;;;;;;;;;;;21.93;39.00;100255.73;103972;1288;61400;-83
2023/04/15 07:06:12;;;;;;;;;;;;;;;21.93;38.99;100250.77;103517;1288;646430;-84
2023/04/15 07:08:37;;;;;;;;;;;;;;;21.92;39.07;100249.30;104076;1286;75258;-83
2023/04/15 07:11:03;;;;;;;;;;;;;;;21.93;39.01;100246.23;103991;1286;61955;-83
2023/04/15 07:13:29;;;;;;;;;;;;;;;21.93;39.03;100244.96;104400;1283;61397;-83
2023/04/15 07:15:54;;;;;;;;;;;;;;;21.94;39.10;100253.70;104100;1288;61419;-82
2023/04/15 07:18:20;;;;;;;;;;;;;;;21.94;39.04;100257.26;104026;1289;62702;-82
2023/04/15 07:20:46;;;;;;;;;;;;;;;21.95;39.09;100261.00;104054;1288;61394;-82
2023/04/15 07:23:11;;;;;;;;;;;;;;;21.95;39.02;100262.23;103852;1288;61435;-83
2023/04/15 07:25:37;;;;;;;;;;;;;;;21.95;39.06;100264.18;103970;1283;61375;-83
2023/04/15 07:28:02;;;;;;;;;;;;;;;21.96;39.12;100265.39;104053;1289;61390;-84
2023/04/15 07:30:29;;;;;;;;;;;;;;;21.97;39.17;100263.88;104046;1289;61371;-83
2023/04/15 07:32:55;;;;;;;;;;;;;;;21.97;39.21;100264.58;104070;1283;62462;-83
2023/04/15 07:35:20;;;;;;;;;;;;;;;21.98;39.21;100267.17;104113;1288;61404;-83
2023/04/15 07:37:47;;;;;;;;;;;;;;;21.98;39.22;100278.42;103929;1288;61410;-83
2023/04/15 07:40:13;;;;;;;;;;;;;;;22.00;39.29;100278.34;104061;1286;61279;-83
2023/04/15 07:42:39;;;;;;;;;;;;;;;22.00;39.19;100280.80;103910;1288;61381;-83
2023/04/15 07:45:05;;;;;;;;;;;;;;;22.01;39.25;100288.23;103910;1288;61420;-84
2023/04/15 07:47:33;;;;;;;;;;;;;;;22.01;39.28;100287.17;103949;1288;61310;-84
2023/04/15 07:49:59;;;;;;;;;;;;;;;22.02;39.31;100288.35;104008;1284;72599;-84
2023/04/15 07:52:24;;;;;;;;;;;;;;;22.03;39.33;100293.29;104014;1289;61359;-84
2023/04/15 07:54:50;;;;;;;;;;;;;;;22.04;39.28;100295.88;104029;1287;61406;-83
2023/04/15 07:57:16;;;;;;;;;;;;;;;22.04;39.20;100300.85;104031;1288;61281;-84
2023/04/15 07:59:42;;;;;;;;;;;;;;;22.05;39.32;100298.66;103700;1291;61623;-84
2023/04/15 08:02:08;;;;;;;;;;;;;;;22.05;39.38;100301.85;103656;1292;61503;-84
2023/04/15 08:04:34;;;;;;;;;;;;;;;22.06;39.35;100301.98;103625;1288;61711;-84
2023/04/15 08:06:59;;;;;;;;;;;;;;;22.06;39.31;100302.10;103708;1290;61390;-84
2023/04/15 08:09:26;;;;;;;;;;;;;;;22.07;39.40;100304.73;103715;1292;61413;-83
2023/04/15 08:11:51;;;;;;;;;;;;;;;22.07;39.52;100307.23;103699;1290;61309;-83
2023/04/15 08:14:18;;;;;;;;;;;;;;;22.07;39.41;100307.42;103713;1286;62748;-84
2023/04/15 08:16:44;;;;;;;;;;;;;;;22.08;39.39;100308.80;103652;1292;61397;-84
2023/04/15 08:19:09;;;;;;;;;;;;;;;22.08;39.46;100309.67;103660;1292;61576;-84
2023/04/15 08:21:35;;;;;;;;;;;;;;;22.08;39.53;100308.95;103710;1286;61401;-83
2023/04/15 08:24:02;;;;;;;;;;;;;;;22.08;39.52;100309.88;103744;1290;61467;-83
2023/04/15 08:26:27;;;;;;;;;;;;;;;22.09;39.45;100311.39;103745;1291;61476;-83
2023/04/15 08:28:53;;;;;;;;;;;;;;;22.10;39.46;100319.42;103771;1292;61486;-83
2023/04/15 08:31:18;;;;;;;;;;;;;;;22.10;39.50;100316.36;103872;1286;61394;-83
2023/04/15 08:33:44;;;;;;;;;;;;;;;22.09;39.37;100317.81;103795;1299;61327;-83
2023/04/15 08:36:11;;;;;;;;;;;;;;;22.09;39.63;100318.55;103942;1289;61361;-84
2023/04/15 08:38:42;;;;;;;;;;;;;;;22.10;39.54;100321.71;103917;1283;61448;-84
2023/04/15 08:41:12;;;;;;;;;;;;;;;22.10;39.56;100326.89;103969;1283;62031;-84
2023/04/15 08:43:40;;;;;;;;;;;;;;;22.10;39.65;100325.27;103961;1285;72445;-84
2023/04/15 08:46:06;;;;;;;;;;;;;;;22.10;39.61;100327.26;104052;1285;75270;-84
2023/04/15 08:48:32;;;;;;;;;;;;;;;22.10;39.63;100326.73;103974;1283;61423;-84
2023/04/15 08:50:57;;;;;;;;;;;;;;;22.10;39.62;100324.73;103993;1286;61447;-84
2023/04/15 08:53:23;;;;;;;;;;;;;;;22.10;39.62;100327.96;104110;1288;62131;-84
2023/04/15 08:55:51;;;;;;;;;;;;;;;22.10;39.61;100326.87;104484;1283;61205;-84
2023/04/15 08:58:16;;;;;;;;;;;;;;;22.11;39.57;100328.98;104026;1288;74150;-83
2023/04/15 09:00:42;;;;;;;;;;;;;;;22.10;39.61;100325.98;104102;1288;61381;-83
2023/04/15 09:03:09;;;;;;;;;;;;;;;22.11;39.66;100322.54;103993;1288;61394;-84
2023/04/15 09:05:35;;;;;;;;;;;;;;;22.11;39.74;100319.64;103970;1286;61268;-84
2023/04/15 09:08:01;;;;;;;;;;;;;;;22.11;39.71;100325.02;103840;1283;62104;-84
2023/04/15 09:10:27;;;;;;;;;;;;;;;22.11;39.50;100318.05;104017;1288;61351;-83
2023/04/15 09:12:53;;;;;;;;;;;;;;;22.11;39.69;100317.69;104124;1288;61435;-82
2023/04/15 09:15:19;;;;;;;;;;;;;;;22.11;39.77;100318.91;104484;1289;61383;-83
2023/04/15 09:17:45;;;;;;;;;;;;;;;22.11;39.64;100319.48;104206;1282;62548;-83
2023/04/15 09:20:14;;;;;;;;;;;;;;;22.11;39.76;100312.83;104054;1285;75496;-83
2023/04/15 09:22:40;;;;;;;;;;;;;;;22.11;39.64;100310.89;103968;1283;62509;-83
2023/04/15 09:25:15;;;;;;;;;;;;;;;22.11;39.68;100313.04;104004;1288;61384;-83
2023/04/15 09:27:48;;;;;;;;;;;;;;;22.12;39.68;100315.85;104028;1283;72316;-85
2023/04/15 09:30:13;;;;;;;;;;;;;;;22.11;39.71;100316.41;104278;1283;76298;-84
2023/04/15 09:32:48;;;;;;;;;;;;;;;22.12;39.66;100319.25;104491;1282;62181;-84
2023/04/15 09:35:37;;;;;;;;;;;;;;;22.12;39.85;100316.21;104393;1288;62312;-84
2023/04/15 09:38:02;;;;;;;;;;;;;;;22.12;39.72;100316.38;103456;1289;72561;-83
2023/04/15 09:40:35;;;;;;;;;;;;;;;22.12;39.86;100316.36;103298;1292;64062;-83
2023/04/15 09:43:01;;;;;;;;;;;;;;;22.12;39.84;100320.46;103485;1291;62203;-83
2023/04/15 09:45:27;;;;;;;;;;;;;;;22.12;39.81;100321.75;103531;1291;62147;-83
2023/04/15 09:47:52;;;;;;;;;;;;;;;22.12;39.79;100325.88;103288;1294;63558;-83
2023/04/15 09:50:18;;;;;;;;;;;;;;;22.12;39.75;100322.29;103474;1291;62277;-84
2023/04/15 09:52:44;;;;;;;;;;;;;;;22.12;39.87;100316.41;103276;1294;62159;-83
2023/04/15 09:55:10;;;;;;;;;;;;;;;22.11;39.83;100314.79;103274;1294;63828;-83
2023/04/15 09:57:36;;;;;;;;;;;;;;;22.10;39.74;100314.52;103214;1291;62140;-83
2023/04/15 10:00:03;;;;;;;;;;;;;;;22.10;39.71;100316.29;103363;1294;62206;-83
2023/04/15 10:02:29;;;;;;;;;;;;;;;22.10;39.81;100313.27;103150;1295;75407;-83
2023/04/15 10:04:55;;;;;;;;;;;;;;;22.10;39.72;100314.73;103332;1292;62262;-83
2023/04/15 10:07:21;;;;;;;;;;;;;;;22.10;39.88;100312.40;103211;1289;62276;-83
2023/04/15 10:09:47;;;;;;;;;;;;;;;22.09;39.68;100308.70;103245;1290;63359;-83
2023/04/15 10:12:17;;;;;;;;;;;;;;;22.09;39.73;100306.21;103191;1294;62191;-83
2023/04/15 10:14:43;;;;;;;;;;;;;;;22.08;39.73;100305.71;103352;1294;62107;-83
2023/04/15 10:17:10;;;;;;;;;;;;;;;22.08;39.74;100305.89;103807;1283;62164;-84
2023/04/15 10:19:36;;;;;;;;;;;;;;;22.08;39.79;100305.35;103965;1282;72419;-84
2023/04/15 10:22:01;;;;;;;;;;;;;;;22.08;39.74;100303.62;103958;1286;62231;-83
2023/04/15 10:24:27;;;;;;;;;;;;;;;22.07;39.72;100304.57;104001;1282;63310;-84
2023/04/15 10:26:53;;;;;;;;;;;;;;;22.07;39.79;100307.45;103959;1285;62158;-84
2023/04/15 10:29:18;;;;;;;;;;;;;;;22.07;39.72;100309.07;103969;1283;62185;-84
2023/04/15 10:31:44;;;;;;;;;;;;;;;22.07;39.69;100308.18;104016;1289;63093;-85
2023/04/15 10:34:09;;;;;;;;;;;;;;;22.06;39.69;100307.14;103959;1289;62194;-83
2023/04/15 10:36:36;;;;;;;;;;;;;;;22.06;39.68;100312.00;104060;1284;62280;-84
2023/04/15 10:39:01;;;;;;;;;;;;;;;22.06;39.72;100312.02;103916;1288;62277;-83
2023/04/15 10:41:30;;;;;;;;;;;;;;;22.05;39.77;100307.95;103967;1288;62191;-84
2023/04/15 10:43:58;;;;;;;;;;;;;;;22.05;39.73;100308.13;103968;1288;62189;-84
2023/04/15 10:46:35;;;;;;;;;;;;;;;22.05;39.67;100307.63;104006;1283;62184;-84
2023/04/15 10:49:05;;;;;;;;;;;;;;;22.04;39.62;100306.78;104182;1282;62107;-83
2023/04/15 10:51:31;;;;;;;;;;;;;;;22.05;39.70;100314.44;104411;1284;74598;-83
2023/04/15 10:53:58;;;;;;;;;;;;;;;22.05;39.68;100322.67;104147;1282;62633;-83
2023/04/15 10:56:23;;;;;;;;;;;;;;;22.04;39.69;100312.85;104044;1285;62283;-83
2023/04/15 10:58:50;;;;;;;;;;;;;;;22.05;39.81;100315.17;103945;1283;62767;-84
2023/04/15 11:01:15;;;;;;;;;;;;;;;22.04;39.80;100321.30;103936;1288;62107;-84
2023/04/15 11:03:41;;;;;;;;;;;;;;;22.05;39.67;100317.70;103957;1283;62209;-84
2023/04/15 11:06:07;;;;;;;;;;;;;;;22.04;39.77;100315.79;103950;1283;63466;-84
2023/04/15 11:09:08;;;;;;;;;;;;;;;22.03;39.71;100317.41;104023;1282;62197;-84
2023/04/15 11:11:52;;;;;;;;;;;;;;;22.04;39.80;100320.42;103131;1289;63376;-84
2023/04/15 11:14:18;;;;;;;;;;;;;;;22.03;39.75;100321.34;103173;1295;73586;-83
2023/04/15 11:16:43;;;;;;;;;;;;;;;22.04;39.83;100324.95;103231;1289;62319;-83
2023/04/15 11:19:09;;;;;;;;;;;;;;;22.04;39.68;100321.86;103189;1289;62329;-83
2023/04/15 11:21:35;;;;;;;;;;;;;;;22.03;39.66;100323.70;103149;1291;62372;-83
2023/04/15 11:24:01;;;;;;;;;;;;;;;22.03;39.73;100326.95;103190;1289;63391;-84
2023/04/15 11:26:26;;;;;;;;;;;;;;;22.03;39.70;100329.08;103300;1294;62274;-84
2023/04/15 11:28:53;;;;;;;;;;;;;;;22.03;39.70;100337.21;103228;1290;75255;-84
2023/04/15 11:31:19;;;;;;;;;;;;;;;22.03;39.74;100332.52;103218;1292;62313;-84
2023/04/15 11:33:55;;;;;;;;;;;;;;;22.03;39.75;100336.48;103329;1291;62562;-84
2023/04/15 11:36:23;;;;;;;;;;;;;;;22.03;39.80;100332.86;103271;1289;72337;-84
2023/04/15 11:39:15;;;;;;;;;;;;;;;22.03;39.76;100326.07;103292;1289;75433;-84
2023/04/15 11:41:44;;;;;;;;;;;;;;;22.03;39.67;100324.60;102754;1297;62165;-84
2023/04/15 11:44:17;;;;;;;;;;;;;;;22.03;39.68;100320.66;102708;1297;62256;-83
2023/04/15 11:46:42;;;;;;;;;;;;;;;22.03;39.78;100329.10;102735;1302;73505;-84
2023/04/15 11:49:08;;;;;;;;;;;;;;;22.03;39.71;100324.60;103181;1289;62220;-83
2023/04/15 11:51:33;;;;;;;;;;;;;;;22.03;39.75;100323.19;103291;1291;62279;-84
2023/04/15 11:53:59;;;;;;;;;;;;;;;22.03;39.69;100322.45;103599;1291;62539;-84
2023/04/15 11:56:26;;;;;;;;;;;;;;;22.03;39.80;100324.96;103203;1295;62127;-83
2023/04/15 11:58:55;;;;;;;;;;;;;;;22.03;39.72;100317.61;103259;1291;62363;-83
2023/04/15 12:01:30;;;;;;;;;;;;;;;22.04;39.81;100320.24;103368;1294;75078;-83
2023/04/15 12:03:56;;;;;;;;;;;;;;;22.03;39.79;100319.22;103212;1290;62240;-83
2023/04/15 12:06:22;;;;;;;;;;;;;;;22.03;39.71;100322.28;103305;1289;62632;-84
2023/04/15 12:08:59;;;;;;;;;;;;;;;22.03;39.79;100322.25;103160;1290;62331;-84
2023/04/15 12:11:25;;;;;;;;;;;;;;;22.04;39.70;100322.94;103366;1292;75289;-84
2023/04/15 12:13:52;;;;;;;;;;;;;;;22.04;39.82;100319.17;103299;1294;62208;-83
2023/04/15 12:16:18;;;;;;;;;;;;;;;22.04;39.73;100319.71;103290;1292;62344;-83
2023/04/15 12:18:45;;;;;;;;;;;;;;;22.04;39.78;100312.16;103535;1288;63283;-83
2023/04/15 12:21:10;;;;;;;;;;;;;;;22.04;39.68;100310.19;103963;1288;62183;-84
2023/04/15 12:23:56;;;;;;;;;;;;;;;22.05;39.64;100309.80;104018;1288;62168;-84